^^
Station Historical Data
Daily Summary for July 13, 2017 Units:  English    Metric   Both
« Previous Day
Next Day »
Daily Weekly Monthly Yearly Custom
  High: Low: Average:
Temperature: 90.4 °F 70.5 °F 79 °F
Dew Point: 75.7 °F 69.3 °F 72.6 °F
Humidity: 96% 58% 82%
Wind Speed: 7.0mph 0.0mph 1.1mph
Wind Gust: 22.0mph - -
Wind- - SW
Pressure: 30.04 in 29.94 in -
Precipitation: 0.36 in    
Historical Graphs
 
 
Tabular Data for July 13, 2017
Time Temperature Dew Point Pressure Wind Wind Speed Wind Gust Humidity Rainfall Rate (Hourly) Conditions
00:00 76.2 °F 72.4 °F 30.00 in Calm   6.0 mph 88% 0.00 in RA
00:15 76.3 °F 72.4 °F 30.00 in SSE 1.0 mph 6.0 mph 88% 0.00 in CLR
00:30 76.3 °F 72.5 °F 30.00 in Calm   4.0 mph 88% 0.00 in CLR
00:45 76.0 °F 72.5 °F 29.99 in Calm   2.0 mph 89% 0.00 in CLR
01:00 75.7 °F 72.2 °F 29.99 in Calm   2.0 mph 89% 0.00 in CLR
02:15 75.1 °F 72.0 °F 29.99 in South 1.0 mph 3.0 mph 90% 0.00 in CLR
02:30 75.1 °F 72.0 °F 29.99 in SW 1.0 mph 3.0 mph 90% 0.00 in CLR
02:45 75.4 °F 72.3 °F 29.99 in Calm   4.0 mph 90% 0.00 in CLR
03:00 75.1 °F 72.3 °F 29.99 in Calm   3.0 mph 91% 0.00 in CLR
03:15 75.1 °F 72.3 °F 29.98 in SW 1.0 mph 5.0 mph 91% 0.00 in CLR
03:30 75.7 °F 72.2 °F 29.98 in SSW 1.0 mph 5.0 mph 89% 0.00 in CLR
03:45 75.7 °F 72.2 °F 29.98 in Calm   3.0 mph 89% 0.00 in CLR
04:00 75.8 °F 72.0 °F 29.98 in Calm   3.0 mph 88% 0.00 in CLR
04:15 76.0 °F 71.8 °F 29.98 in Calm   2.0 mph 87% 0.00 in CLR
04:30 76.1 °F 71.9 °F 29.99 in Calm   1.0 mph 87% 0.00 in CLR
04:45 75.9 °F 72.1 °F 29.98 in SSE 1.0 mph 3.0 mph 88% 0.00 in CLR
05:00 75.6 °F 71.8 °F 29.98 in South 1.0 mph 2.0 mph 88% 0.00 in CLR
05:15 75.2 °F 71.7 °F 29.99 in Calm   2.0 mph 89% 0.00 in BKN
05:30 75.5 °F 72.0 °F 29.99 in SSW 1.0 mph 3.0 mph 89% 0.00 in BKN
05:45 75.8 °F 72.0 °F 29.99 in SSW 1.0 mph 3.0 mph 88% 0.00 in BKN
06:00 75.9 °F 72.1 °F 30.00 in Calm   3.0 mph 88% 0.00 in BKN
06:15 75.8 °F 72.0 °F 30.00 in Calm   2.0 mph 88% 0.00 in BKN
06:30 75.2 °F 71.7 °F 30.00 in Calm     89% 0.00 in BKN
06:45 75.3 °F 72.2 °F 29.99 in Calm   1.0 mph 90% 0.00 in BKN
07:00 75.5 °F 72.3 °F 29.99 in Calm   1.0 mph 90% 0.00 in BKN
07:15 75.9 °F 72.8 °F 29.99 in Calm   4.0 mph 90% 0.00 in SCT
07:30 76.7 °F 73.2 °F 29.99 in Calm   3.0 mph 89% 0.00 in SCT
07:45 77.5 °F 73.7 °F 29.98 in SSW 1.0 mph 6.0 mph 88% 0.00 in SCT
08:00 78.9 °F 73.3 °F 29.99 in South 3.0 mph 9.0 mph 83% 0.00 in SCT
08:15 79.8 °F 73.9 °F 29.99 in SSW 3.0 mph 10.0 mph 82% 0.00 in CLR
08:30 80.6 °F 73.8 °F 29.99 in SSW 6.0 mph 12.0 mph 80% 0.00 in CLR
08:45 81.4 °F 73.5 °F 29.99 in SSW 6.0 mph 13.0 mph 77% 0.00 in CLR
09:00 82.3 °F 73.6 °F 29.99 in SW 5.0 mph 10.0 mph 75% 0.00 in CLR
09:15 83.3 °F 73.7 °F 29.98 in SSW 6.0 mph 10.0 mph 73% 0.00 in CLR
09:30 84.2 °F 73.3 °F 29.98 in SW 3.0 mph 12.0 mph 70% 0.00 in CLR
09:45 84.9 °F 73.6 °F 29.97 in SSW 6.0 mph 12.0 mph 69% 0.00 in CLR
10:00 86.2 °F 74.8 °F 29.98 in SW 1.0 mph 12.0 mph 69% 0.00 in CLR
10:15 86.6 °F 74.8 °F 29.97 in WSW 1.0 mph 7.0 mph 68% 0.00 in CLR
10:30 87.5 °F 74.7 °F 29.97 in Calm   10.0 mph 66% 0.00 in CLR
10:45 87.9 °F 75.2 °F 29.97 in WSW 1.0 mph 10.0 mph 66% 0.00 in CLR
11:00 87.9 °F 74.7 °F 29.97 in SW 3.0 mph 9.0 mph 65% 0.00 in CLR
11:15 88.7 °F 75.0 °F 29.97 in SW 1.0 mph 8.0 mph 64% 0.00 in FEW
11:30 90.3 °F 74.0 °F 29.96 in SSW 7.0 mph 10.0 mph 59% 0.00 in FEW
11:45 90.2 °F 74.4 °F 29.97 in WSW 2.0 mph 9.0 mph 60% 0.00 in FEW
12:00 90.4 °F 73.6 °F 29.96 in SW 3.0 mph 12.0 mph 58% 0.00 in FEW
12:15 89.6 °F 73.9 °F 29.96 in WSW 1.0 mph 10.0 mph 60% 0.00 in FEW
12:30 89.4 °F 73.2 °F 29.96 in SW 3.0 mph 10.0 mph 59% 0.00 in FEW
12:45 89.1 °F 72.9 °F 29.96 in SW 3.0 mph 12.0 mph 59% 0.00 in FEW
13:00 88.6 °F 73.4 °F 29.96 in WSW 3.0 mph 8.0 mph 61% 0.00 in FEW
13:15 88.0 °F 73.8 °F 29.96 in WSW 1.0 mph 8.0 mph 63% 0.00 in SCT
13:30 87.8 °F 74.1 °F 29.96 in SW 1.0 mph 9.0 mph 64% 0.00 in SCT
13:45 87.9 °F 74.2 °F 29.95 in SW 3.0 mph 6.0 mph 64% 0.00 in SCT
14:00 88.5 °F 74.8 °F 29.95 in SSW 2.0 mph 7.0 mph 64% 0.00 in SCT
14:15 88.9 °F 75.1 °F 29.95 in Calm   5.0 mph 64% 0.00 in BKN
14:30 88.2 °F 75.0 °F 29.95 in WSW 2.0 mph 4.0 mph 65% 0.00 in BKN
14:45 88.0 °F 75.7 °F 29.95 in Calm   5.0 mph 67% 0.00 in BKN
15:00 87.6 °F 75.7 °F 29.95 in SW 1.0 mph 7.0 mph 68% 0.00 in BKN
15:15 86.7 °F 74.8 °F 29.96 in SSE 2.0 mph 7.0 mph 68% 0.00 in SCT
15:30 86.4 °F 74.6 °F 29.95 in SSW 1.0 mph 7.0 mph 68% 0.00 in SCT
15:45 86.1 °F 74.7 °F 29.94 in SW 1.0 mph 6.0 mph 69% 0.00 in SCT
16:00 85.9 °F 75.4 °F 29.94 in Calm   3.0 mph 71% 0.00 in SCT
16:15 85.3 °F 74.8 °F 29.94 in SSW 1.0 mph 4.0 mph 71% 0.00 in SCT
16:30 85.0 °F 75.3 °F 29.94 in WSW 1.0 mph 5.0 mph 73% 0.00 in SCT
16:45 83.7 °F 74.5 °F 29.97 in NNW 5.0 mph 22.0 mph 74% 0.00 in SCT
17:00 74.0 °F 70.6 °F 29.98 in ENE 1.0 mph 22.0 mph 89% 0.30 in RA
17:15 73.4 °F 71.3 °F 29.99 in Calm   7.0 mph 93% 0.01 in
17:30 73.0 °F 70.9 °F 29.98 in Calm   6.0 mph 93% 0.00 in
17:45 73.1 °F 71.0 °F 29.97 in Calm   1.0 mph 93% 0.00 in
18:00 73.1 °F 71.0 °F 29.97 in Calm   1.0 mph 93% 0.00 in
18:15 73.5 °F 71.4 °F 29.97 in Calm   1.0 mph 93% 0.00 in BKN
18:30 73.7 °F 71.2 °F 29.98 in Calm   1.0 mph 92% 0.00 in BKN
18:45 73.9 °F 71.4 °F 29.98 in Calm   1.0 mph 92% 0.00 in BKN
19:00 73.7 °F 71.2 °F 29.98 in Calm   2.0 mph 92% 0.00 in BKN
19:15 73.7 °F 71.5 °F 29.98 in Calm     93% 0.00 in SCT
19:30 73.8 °F 71.9 °F 29.99 in Calm     94% 0.00 in SCT
19:45 73.5 °F 71.6 °F 29.99 in Calm   1.0 mph 94% 0.00 in SCT
20:00 73.5 °F 71.7 °F 30.00 in Calm   1.0 mph 94% 0.00 in SCT
20:15 73.4 °F 71.6 °F 30.00 in Calm     94% 0.00 in BKN
20:30 73.4 °F 71.6 °F 30.00 in Calm     94% 0.00 in BKN
20:45 73.0 °F 71.1 °F 30.00 in Calm   3.0 mph 94% 0.00 in BKN
21:00 72.2 °F 70.1 °F 30.01 in NW 1.0 mph 6.0 mph 93% 0.00 in BKN
21:15 71.6 °F 69.8 °F 30.01 in NNW 1.0 mph 4.0 mph 94% 0.00 in OVC
21:30 71.4 °F 69.6 °F 30.02 in Calm   3.0 mph 94% 0.00 in OVC
21:45 71.3 °F 69.8 °F 30.02 in Calm   1.0 mph 95% 0.00 in OVC
22:00 71.4 °F 69.9 °F 30.02 in Calm   2.0 mph 95% 0.00 in OVC
22:15 71.3 °F 69.8 °F 30.02 in Calm   2.0 mph 95% 0.00 in OVC
22:30 71.4 °F 69.9 °F 30.02 in Calm   3.0 mph 95% 0.01 in RA
22:45 71.4 °F 70.2 °F 30.03 in Calm   3.0 mph 96% 0.02 in RA
23:00 71.4 °F 70.2 °F 30.03 in Calm   2.0 mph 96% 0.01 in OVC
23:15 71.4 °F 70.2 °F 30.03 in Calm   2.0 mph 96% 0.01 in -RA
23:30 71.2 °F 70.0 °F 30.03 in WNW 1.0 mph 4.0 mph 96% 0.00 in -RA
23:45 70.5 °F 69.3 °F 30.04 in SW 1.0 mph 3.0 mph 96% 0.00 in -RA
TarryTown NY Weather
Compliments of Weather Underground - 1.5 mb